createdAt,value
2022-09-05T00:00:49.380Z,2.40
2022-09-05T00:03:57.253Z,2.80
2022-09-05T00:07:09.683Z,2.50
2022-09-05T00:10:37.469Z,3.20
2022-09-05T00:15:15.316Z,4.00
2022-09-05T00:20:01.649Z,3.00
2022-09-05T00:24:27.974Z,2.20
2022-09-05T00:25:07.247Z,2.63
2022-09-05T00:28:26.670Z,2.95
2022-09-05T00:31:54.175Z,2.10
2022-09-05T00:35:13.270Z,2.22
2022-09-05T00:38:28.496Z,2.50
2022-09-05T00:41:38.369Z,2.88
2022-09-05T00:44:58.444Z,2.25
2022-09-05T00:47:59.748Z,2.13
2022-09-05T00:51:11.220Z,2.70
2022-09-05T00:54:41.967Z,3.05
2022-09-05T00:58:02.081Z,2.35
2022-09-05T01:01:20.683Z,2.47
2022-09-05T01:04:34.714Z,2.20
2022-09-05T01:07:42.466Z,2.55
2022-09-05T01:10:53.925Z,2.80
2022-09-05T01:14:18.538Z,2.60
2022-09-05T01:17:19.918Z,2.33
2022-09-05T01:20:39.460Z,2.30
2022-09-05T01:24:04.175Z,2.10
2022-09-05T01:27:24.016Z,2.35
2022-09-05T01:30:36.468Z,2.53
2022-09-05T01:33:55.181Z,2.30
2022-09-05T01:36:59.338Z,2.22
2022-09-05T01:40:26.029Z,2.42
2022-09-05T01:43:46.226Z,2.22
2022-09-05T01:46:56.679Z,2.03
2022-09-05T01:50:05.863Z,2.20
2022-09-05T01:53:09.395Z,3.03
2022-09-05T01:56:29.188Z,2.38
2022-09-05T01:59:39.353Z,2.25
2022-09-05T02:02:40.898Z,2.58
2022-09-05T02:06:07.237Z,2.47
2022-09-05T02:09:08.676Z,2.42
2022-09-05T02:12:15.938Z,2.45
2022-09-05T02:15:22.182Z,2.60
2022-09-05T02:18:26.876Z,2.70
2022-09-05T02:21:55.403Z,2.58
2022-09-05T02:25:25.615Z,2.83
2022-09-05T02:28:44.192Z,2.50
2022-09-05T02:31:48.283Z,2.63
2022-09-05T02:35:05.034Z,2.67
2022-09-05T02:39:19.986Z,3.25
2022-09-05T02:45:06.735Z,2.30
2022-09-05T02:45:26.726Z,2.10
2022-09-05T02:48:34.659Z,2.80
2022-09-05T02:57:28.365Z,2.28
2022-09-05T02:57:38.163Z,2.58
2022-09-05T02:59:09.040Z,2.80
2022-09-05T03:02:25.530Z,2.78
2022-09-05T03:05:33.488Z,2.53
2022-09-05T03:08:46.274Z,2.80
2022-09-05T03:12:03.043Z,2.58
2022-09-05T03:15:42.470Z,2.92
2022-09-05T03:18:43.753Z,3.97
2022-09-05T03:22:03.482Z,3.42
2022-09-05T03:25:23.369Z,5.15
2022-09-05T03:28:43.671Z,3.20
2022-09-05T03:31:56.926Z,3.85
2022-09-05T03:35:08.220Z,3.78
2022-09-05T03:38:12.654Z,3.75
2022-09-05T03:41:40.622Z,3.80
2022-09-05T03:44:45.193Z,3.05
2022-09-05T03:48:23.175Z,3.95
2022-09-05T03:57:14.717Z,4.70
2022-09-05T03:57:15.714Z,3.95
2022-09-05T03:58:55.291Z,3.45
2022-09-05T04:03:30.811Z,4.13
2022-09-05T04:08:07.676Z,3.60
2022-09-05T04:08:55.198Z,3.08
2022-09-05T04:11:59.781Z,2.95
2022-09-05T04:15:07.205Z,3.05
2022-09-05T04:18:17.448Z,3.88
2022-09-05T04:21:29.177Z,3.92
2022-09-05T04:24:39.649Z,3.42
2022-09-05T04:27:48.167Z,3.58
2022-09-05T04:30:53.702Z,3.30
2022-09-05T04:33:58.134Z,3.53
2022-09-05T04:37:04.143Z,3.17
2022-09-05T04:40:24.036Z,4.32
2022-09-05T04:43:27.863Z,3.15
2022-09-05T04:46:48.852Z,3.28
2022-09-05T04:49:54.868Z,3.08
2022-09-05T04:53:22.709Z,3.58
2022-09-05T04:56:30.776Z,2.92
2022-09-05T05:03:33.343Z,3.53
2022-09-05T05:06:14.485Z,3.10
2022-09-05T05:06:45.403Z,3.30
2022-09-05T05:10:40.502Z,3.95
2022-09-05T05:17:54.427Z,2.92
2022-09-05T05:18:15.780Z,3.83
2022-09-05T05:20:43.056Z,3.60
2022-09-05T05:23:48.077Z,4.32
2022-09-05T05:27:01.418Z,3.60
2022-09-05T05:30:10.327Z,3.67
2022-09-05T05:33:33.720Z,3.78
2022-09-05T05:36:39.845Z,4.32
2022-09-05T05:39:44.319Z,3.20
2022-09-05T05:42:46.306Z,3.38
2022-09-05T05:45:55.185Z,4.18
2022-09-05T05:49:03.911Z,3.47
2022-09-05T05:52:13.779Z,3.40
2022-09-05T05:55:52.788Z,4.53
2022-09-05T05:59:13.714Z,4.63
2022-09-05T06:02:34.666Z,3.40
2022-09-05T06:05:59.661Z,3.75
2022-09-05T06:14:31.253Z,3.00
2022-09-05T06:15:06.635Z,3.05
2022-09-05T06:16:46.586Z,3.30
2022-09-05T06:20:28.786Z,3.33
2022-09-05T06:23:40.043Z,3.22
2022-09-05T06:26:50.954Z,3.60
2022-09-05T06:29:55.451Z,3.38
2022-09-05T06:33:16.587Z,3.28
2022-09-05T06:36:20.702Z,3.30
2022-09-05T06:39:37.011Z,3.80
2022-09-05T06:42:43.629Z,3.88
2022-09-05T06:49:30.010Z,3.30
2022-09-05T06:52:30.376Z,3.63
2022-09-05T06:55:50.722Z,3.47
2022-09-05T06:58:51.983Z,3.53
2022-09-05T07:02:04.700Z,3.22
2022-09-05T07:05:37.118Z,3.63
2022-09-05T07:08:47.969Z,3.80
2022-09-05T07:12:07.894Z,3.33
2022-09-05T07:15:09.478Z,3.65
2022-09-05T07:18:16.719Z,4.00
2022-09-05T07:21:50.627Z,3.63
2022-09-05T07:24:55.681Z,3.60
2022-09-05T07:28:26.258Z,3.50
2022-09-05T07:31:37.950Z,3.08
2022-09-05T07:34:39.655Z,3.00
2022-09-05T07:37:43.751Z,2.80
2022-09-05T07:41:03.795Z,2.65
2022-09-05T07:44:10.039Z,2.30
2022-09-05T07:47:23.604Z,2.28
2022-09-05T07:54:57.803Z,2.13
2022-09-05T07:57:09.636Z,1.95
2022-09-05T07:57:31.350Z,2.10
2022-09-05T08:00:32.079Z,2.05
2022-09-05T08:03:34.326Z,2.10
2022-09-05T08:07:34.725Z,1.90
2022-09-05T08:10:08.662Z,1.60
2022-09-05T08:13:24.693Z,1.90
2022-09-05T08:16:28.844Z,2.30
2022-09-05T08:19:36.926Z,2.08
2022-09-05T08:22:53.003Z,1.80
2022-09-05T08:25:58.283Z,2.30
2022-09-05T08:29:04.697Z,2.05
2022-09-05T08:32:10.403Z,1.90
2022-09-05T08:35:30.978Z,1.83
2022-09-05T08:38:38.730Z,1.92
2022-09-05T08:42:05.717Z,2.00
2022-09-05T08:46:39.461Z,1.63
2022-09-05T08:48:58.258Z,1.52
2022-09-05T08:52:04.782Z,1.73
2022-09-05T08:55:18.748Z,1.73
2022-09-05T08:58:38.951Z,1.40
2022-09-05T09:02:47.051Z,1.73
2022-09-05T09:06:11.951Z,1.98
2022-09-05T09:09:09.294Z,1.75
2022-09-05T09:15:28.246Z,1.52
2022-09-05T09:18:52.537Z,1.52
2022-09-05T09:21:56.889Z,1.30
2022-09-05T09:25:14.169Z,1.83
2022-09-05T09:28:50.507Z,1.70
2022-09-05T09:31:58.272Z,1.73
2022-09-05T09:35:06.291Z,2.10
2022-09-05T09:38:22.608Z,1.35
2022-09-05T09:41:50.254Z,1.70
2022-09-05T09:45:22.534Z,1.60
2022-09-05T09:48:28.161Z,1.52
2022-09-05T09:51:35.256Z,1.45
2022-09-05T09:54:36.529Z,1.40
2022-09-05T09:57:44.904Z,1.70
2022-09-05T10:00:59.376Z,1.50
2022-09-05T10:10:33.590Z,1.60
2022-09-05T10:10:44.035Z,2.10
2022-09-05T10:14:51.182Z,1.60
2022-09-05T10:17:52.594Z,1.50
2022-09-05T10:21:16.151Z,1.50
2022-09-05T10:24:33.984Z,1.70
2022-09-05T10:28:02.152Z,1.90
2022-09-05T10:32:00.998Z,1.70
2022-09-05T10:35:16.837Z,1.95
2022-09-05T10:37:54.798Z,1.40
2022-09-05T10:41:20.371Z,2.13
2022-09-05T10:44:48.174Z,2.08
2022-09-05T10:47:52.557Z,1.70
2022-09-05T10:51:00.917Z,1.60
2022-09-05T10:54:21.019Z,1.92
2022-09-05T10:57:40.788Z,1.90
2022-09-05T11:02:27.589Z,1.95
2022-09-05T11:04:12.755Z,1.90
2022-09-05T11:07:17.405Z,1.50
2022-09-05T11:10:37.463Z,1.67
2022-09-05T11:13:50.178Z,1.50
2022-09-05T11:16:58.858Z,1.40
2022-09-05T11:20:05.957Z,1.55
2022-09-05T11:23:19.351Z,1.60
2022-09-05T11:26:31.187Z,1.50
2022-09-05T11:29:47.258Z,1.40
2022-09-05T11:37:40.067Z,1.63
2022-09-05T11:40:06.359Z,1.58
2022-09-05T11:40:28.844Z,1.50
2022-09-05T11:43:35.254Z,1.60
2022-09-05T11:46:39.694Z,1.60
2022-09-05T11:49:42.327Z,1.48
2022-09-05T11:52:51.419Z,1.80
2022-09-05T11:56:11.831Z,1.90
2022-09-05T11:59:32.720Z,1.48
2022-09-05T12:02:49.577Z,1.50
2022-09-05T12:06:08.459Z,1.60
2022-09-05T12:09:29.447Z,2.03
2022-09-05T12:12:43.565Z,2.00
2022-09-05T12:16:07.637Z,1.42
2022-09-05T12:19:18.879Z,1.45
2022-09-05T12:22:27.337Z,1.75
2022-09-05T12:27:38.322Z,1.48
2022-09-05T12:29:32.703Z,1.48
2022-09-05T12:36:01.217Z,1.73
2022-09-05T12:40:43.555Z,1.30
2022-09-05T12:40:58.415Z,1.52
2022-09-05T12:44:38.434Z,1.50
2022-09-05T12:46:27.153Z,1.30
2022-09-05T12:49:36.941Z,1.50
2022-09-05T12:52:44.624Z,1.58
2022-09-05T12:56:13.487Z,1.30
2022-09-05T13:03:03.474Z,1.60
2022-09-05T13:03:14.501Z,1.20
2022-09-05T13:06:08.683Z,1.40
2022-09-05T13:09:16.921Z,1.50
2022-09-05T13:14:56.697Z,1.30
2022-09-05T13:15:48.452Z,1.58
2022-09-05T13:18:51.508Z,1.40
2022-09-05T13:21:55.513Z,1.30
2022-09-05T13:25:05.103Z,1.25
2022-09-05T13:28:09.286Z,1.45
2022-09-05T13:35:55.150Z,1.05
2022-09-05T13:38:06.301Z,1.15
2022-09-05T13:38:47.546Z,1.40
2022-09-05T13:41:50.828Z,1.30
2022-09-05T13:44:57.305Z,1.02
2022-09-05T13:48:19.620Z,1.20
2022-09-05T13:51:29.851Z,1.20
2022-09-05T13:54:38.147Z,1.50
2022-09-05T13:57:44.792Z,1.52
2022-09-05T14:01:01.075Z,1.23
2022-09-05T14:05:05.445Z,1.10
2022-09-05T14:07:59.407Z,1.50
2022-09-05T14:11:07.019Z,1.30
2022-09-05T14:14:12.008Z,1.20
2022-09-05T14:21:08.765Z,1.15
2022-09-05T14:24:17.259Z,1.30
2022-09-05T14:27:32.331Z,1.13
2022-09-05T14:33:19.161Z,1.20
2022-09-05T14:38:00.524Z,1.20
2022-09-05T14:38:05.820Z,1.48
2022-09-05T14:41:23.470Z,1.30
2022-09-05T14:44:24.745Z,1.40
2022-09-05T14:47:47.402Z,1.20
2022-09-05T14:50:49.381Z,1.23
2022-09-05T15:02:29.982Z,1.50
2022-09-05T15:02:49.659Z,1.40
2022-09-05T15:07:08.618Z,1.40
2022-09-05T15:12:16.499Z,1.20
2022-09-05T15:13:31.499Z,1.23
2022-09-05T15:16:38.340Z,1.50
2022-09-05T15:20:05.490Z,1.33
2022-09-05T15:23:16.337Z,1.15
2022-09-05T15:26:25.632Z,1.20
2022-09-05T15:29:27.159Z,1.30
2022-09-05T15:32:29.441Z,1.58
2022-09-05T15:35:35.852Z,1.55
2022-09-05T15:38:55.382Z,1.83
2022-09-05T15:42:17.122Z,1.80
2022-09-05T15:45:20.983Z,1.40
2022-09-05T15:48:23.785Z,1.77
2022-09-05T15:51:41.980Z,1.25
2022-09-05T15:54:49.698Z,1.00
2022-09-05T15:57:55.494Z,1.38
2022-09-05T16:00:56.955Z,1.23
2022-09-05T16:05:33.591Z,1.20
2022-09-05T16:10:28.588Z,1.30
2022-09-05T16:11:19.731Z,2.38
2022-09-05T16:14:13.847Z,1.40
2022-09-05T16:23:20.881Z,1.23
2022-09-05T16:23:28.095Z,1.20
2022-09-05T16:24:58.285Z,1.45
2022-09-05T16:28:00.855Z,1.25
2022-09-05T16:31:10.659Z,1.50
2022-09-05T16:34:17.886Z,1.30
2022-09-05T16:37:24.109Z,1.13
2022-09-05T16:40:34.871Z,1.30
2022-09-05T16:43:37.789Z,1.23
2022-09-05T16:49:49.412Z,1.20
2022-09-05T16:53:25.058Z,1.08
2022-09-05T16:56:37.799Z,1.20
2022-09-05T16:59:43.552Z,1.30
2022-09-05T17:03:05.099Z,1.30
2022-09-05T17:06:25.772Z,1.30
2022-09-05T17:09:29.154Z,1.33
2022-09-05T17:12:33.668Z,1.40
2022-09-05T17:15:36.146Z,1.40
2022-09-05T17:18:38.130Z,1.70
2022-09-05T17:23:29.270Z,1.65
2022-09-05T17:29:23.729Z,1.17
2022-09-05T17:29:34.295Z,1.30
2022-09-05T17:32:15.703Z,1.73
2022-09-05T17:35:20.910Z,1.42
2022-09-05T17:38:22.313Z,1.40
2022-09-05T17:41:29.812Z,1.50
2022-09-05T17:44:50.701Z,1.40
2022-09-05T17:47:57.528Z,1.50
2022-09-05T17:50:58.903Z,1.63
2022-09-05T17:54:00.205Z,1.63
2022-09-05T17:57:24.548Z,1.80
2022-09-05T18:00:45.424Z,1.83
2022-09-05T18:03:46.764Z,1.67
2022-09-05T18:06:58.927Z,1.85
2022-09-05T18:10:12.311Z,1.80
2022-09-05T18:13:31.907Z,1.92
2022-09-05T18:16:37.210Z,1.60
2022-09-05T18:19:45.001Z,1.60
2022-09-05T18:22:54.878Z,1.60
2022-09-05T18:26:36.514Z,1.73
2022-09-05T18:29:58.233Z,2.05
2022-09-05T18:33:56.407Z,1.80
2022-09-05T18:36:25.484Z,2.35
2022-09-05T18:39:37.118Z,2.15
2022-09-05T18:42:39.686Z,2.72
2022-09-05T18:45:52.368Z,2.60
2022-09-05T18:49:24.901Z,2.10
2022-09-05T18:52:27.533Z,2.25
2022-09-05T18:56:09.811Z,1.70
2022-09-05T18:58:53.309Z,1.70
2022-09-05T19:02:28.714Z,1.73
2022-09-05T19:05:33.182Z,1.73
2022-09-05T19:08:37.169Z,1.90
2022-09-05T19:11:52.770Z,1.58
2022-09-05T19:14:56.179Z,1.70
2022-09-05T19:18:22.878Z,1.70
2022-09-05T19:21:21.541Z,1.85
2022-09-05T19:24:30.370Z,1.90
2022-09-05T19:30:53.745Z,1.95
2022-09-05T19:36:51.375Z,2.38
2022-09-05T19:37:15.106Z,1.88
2022-09-05T19:38:01.435Z,1.60
2022-09-05T19:47:25.216Z,1.65
2022-09-05T19:47:51.105Z,1.80
2022-09-05T19:48:07.813Z,1.83
2022-09-05T19:51:16.188Z,1.65
2022-09-05T19:54:33.060Z,1.65
2022-09-05T19:57:34.445Z,1.73
2022-09-05T20:00:36.279Z,1.50
2022-09-05T20:03:40.708Z,1.60
2022-09-05T20:06:42.283Z,1.77
2022-09-05T20:09:44.606Z,2.10
2022-09-05T20:12:45.963Z,1.60
2022-09-05T20:15:47.350Z,2.00
2022-09-05T20:18:48.721Z,1.83
2022-09-05T20:21:53.798Z,1.90
2022-09-05T20:24:58.999Z,1.77
2022-09-05T20:28:09.591Z,1.75
2022-09-05T20:31:20.080Z,2.22
2022-09-05T20:35:03.638Z,2.10
2022-09-05T20:43:15.809Z,2.28
2022-09-05T20:43:22.128Z,2.13
2022-09-05T20:44:48.475Z,1.73
2022-09-05T20:51:09.268Z,2.10
2022-09-05T20:54:18.860Z,1.60
2022-09-05T20:54:39.597Z,1.63
2022-09-05T20:57:43.719Z,2.42
2022-09-05T21:01:20.925Z,1.88
2022-09-05T21:04:08.040Z,2.30
2022-09-05T21:07:14.180Z,2.40
2022-09-05T21:10:21.319Z,1.83
2022-09-05T21:13:30.201Z,1.92
2022-09-05T21:16:37.552Z,2.03
2022-09-05T21:19:39.120Z,2.40
2022-09-05T21:22:43.378Z,1.95
2022-09-05T21:25:48.611Z,2.13
2022-09-05T21:29:05.035Z,2.78
2022-09-05T21:32:10.779Z,2.70
2022-09-05T21:35:34.657Z,2.83
2022-09-05T21:38:37.364Z,3.85
2022-09-05T21:41:38.721Z,2.40
2022-09-05T21:47:39.615Z,2.42
2022-09-05T21:48:05.126Z,2.25
2022-09-05T21:51:08.334Z,2.25
2022-09-05T21:59:22.514Z,2.00
2022-09-05T21:59:33.301Z,1.98
2022-09-05T22:00:54.260Z,2.60
2022-09-05T22:03:58.132Z,1.95
2022-09-05T22:07:00.445Z,2.03
2022-09-05T22:10:04.083Z,2.65
2022-09-05T22:13:05.722Z,1.80
2022-09-05T22:16:08.834Z,2.03
2022-09-05T22:19:10.428Z,2.67
2022-09-05T22:22:16.863Z,2.00
2022-09-05T22:25:27.272Z,2.50
2022-09-05T22:31:34.899Z,2.03
2022-09-05T22:34:36.245Z,1.83
2022-09-05T22:37:39.161Z,1.80
2022-09-05T22:40:41.011Z,2.08
2022-09-05T22:43:42.306Z,2.05
2022-09-05T22:46:43.669Z,2.40
2022-09-05T22:49:45.005Z,2.50
2022-09-05T22:52:46.378Z,1.90
2022-09-05T22:55:55.001Z,2.00
2022-09-05T22:58:56.305Z,2.20
2022-09-05T23:01:58.151Z,1.63
2022-09-05T23:04:59.508Z,2.47
2022-09-05T23:08:01.323Z,2.20
2022-09-05T23:11:09.838Z,2.17
2022-09-05T23:14:11.144Z,1.83
2022-09-05T23:17:15.255Z,1.90
2022-09-05T23:23:18.655Z,1.73
2022-09-05T23:26:19.951Z,2.13
2022-09-05T23:29:21.422Z,1.90
2022-09-05T23:32:22.717Z,1.85
2022-09-05T23:35:24.023Z,1.60
2022-09-05T23:38:25.326Z,2.00
2022-09-05T23:41:26.679Z,1.77
2022-09-05T23:44:27.981Z,1.58
2022-09-05T23:47:29.843Z,2.22
2022-09-05T23:50:31.235Z,1.70
2022-09-05T23:53:32.700Z,1.73
2022-09-05T23:56:34.050Z,1.65
2022-09-05T23:59:35.342Z,1.75
